Terminal Aerodrome Forecast
Issued by NWS Charleston, WV

Current Version | Previous Version | Graphics & Text | Print | Product List | Glossary On
Versions: 1 2 3 4 5 6 7 8 9 10 11 12 13 14 15 16 17 18 19 20 21 22 23 24
000
FTUS41 KRLX 242300
TAFPKB
TAF
KPKB 242334Z 2500/2524 26017G38KT P6SM SHRA VCTS OVC040CB
     FM250100 26014G32KT P6SM SHRA OVC035
     FM250300 26014G31KT P6SM OVC030
     FM250500 25011G23KT P6SM OVC015
     FM251400 25011G18KT P6SM BKN025
     FM251700 25011G18KT P6SM BKN035
     FM252200 24005KT P6SM SCT050=

USA.gov is the U.S. government's official web portal to all federal, state and local government web resources and services.